sensor_id;sensor_type;location;lat;lon;timestamp;P1;durP1;ratioP1;P2;durP2;ratioP2
64037;SDS011;54641;50.168;8.492;2023-05-15T00:02:25;4.50;;;3.60;;
64037;SDS011;54641;50.168;8.492;2023-05-15T00:04:56;4.10;;;3.00;;
64037;SDS011;54641;50.168;8.492;2023-05-15T00:07:26;4.60;;;3.30;;
64037;SDS011;54641;50.168;8.492;2023-05-15T00:09:56;4.50;;;3.30;;
64037;SDS011;54641;50.168;8.492;2023-05-15T00:12:27;6.00;;;3.50;;
64037;SDS011;54641;50.168;8.492;2023-05-15T00:14:57;4.10;;;3.10;;
64037;SDS011;54641;50.168;8.492;2023-05-15T00:17:28;4.00;;;3.20;;
64037;SDS011;54641;50.168;8.492;2023-05-15T00:19:59;5.00;;;3.10;;
64037;SDS011;54641;50.168;8.492;2023-05-15T00:22:30;4.30;;;3.20;;
64037;SDS011;54641;50.168;8.492;2023-05-15T00:25:01;3.50;;;2.90;;
64037;SDS011;54641;50.168;8.492;2023-05-15T00:27:32;4.30;;;2.70;;
64037;SDS011;54641;50.168;8.492;2023-05-15T00:30:03;6.10;;;4.20;;
64037;SDS011;54641;50.168;8.492;2023-05-15T00:32:35;5.00;;;3.40;;
64037;SDS011;54641;50.168;8.492;2023-05-15T00:35:06;5.70;;;3.70;;
64037;SDS011;54641;50.168;8.492;2023-05-15T00:37:36;5.00;;;3.90;;
64037;SDS011;54641;50.168;8.492;2023-05-15T00:40:08;3.90;;;2.90;;
64037;SDS011;54641;50.168;8.492;2023-05-15T00:42:39;4.40;;;3.30;;
64037;SDS011;54641;50.168;8.492;2023-05-15T00:45:10;4.00;;;3.10;;
64037;SDS011;54641;50.168;8.492;2023-05-15T00:47:41;5.40;;;2.90;;
64037;SDS011;54641;50.168;8.492;2023-05-15T00:50:11;4.30;;;3.20;;
64037;SDS011;54641;50.168;8.492;2023-05-15T00:52:43;6.80;;;3.40;;
64037;SDS011;54641;50.168;8.492;2023-05-15T00:55:13;5.80;;;3.40;;
64037;SDS011;54641;50.168;8.492;2023-05-15T00:57:43;4.30;;;3.10;;
64037;SDS011;54641;50.168;8.492;2023-05-15T01:00:14;3.80;;;2.90;;
64037;SDS011;54641;50.168;8.492;2023-05-15T01:02:47;3.70;;;2.90;;
64037;SDS011;54641;50.168;8.492;2023-05-15T01:05:17;3.60;;;2.80;;
64037;SDS011;54641;50.168;8.492;2023-05-15T01:07:50;5.30;;;3.00;;
64037;SDS011;54641;50.168;8.492;2023-05-15T01:10:25;4.00;;;2.80;;
64037;SDS011;54641;50.168;8.492;2023-05-15T01:13:00;4.70;;;3.50;;
64037;SDS011;54641;50.168;8.492;2023-05-15T01:15:56;4.70;;;3.40;;
64037;SDS011;54641;50.168;8.492;2023-05-15T01:18:32;4.00;;;3.20;;
64037;SDS011;54641;50.168;8.492;2023-05-15T01:21:15;4.60;;;3.20;;
64037;SDS011;54641;50.168;8.492;2023-05-15T01:23:59;4.90;;;3.40;;
64037;SDS011;54641;50.168;8.492;2023-05-15T01:26:43;6.10;;;3.90;;
64037;SDS011;54641;50.168;8.492;2023-05-15T01:29:34;4.00;;;3.00;;
64037;SDS011;54641;50.168;8.492;2023-05-15T01:32:08;6.00;;;3.50;;
64037;SDS011;54641;50.168;8.492;2023-05-15T01:34:47;5.10;;;3.70;;
64037;SDS011;54641;50.168;8.492;2023-05-15T01:37:23;5.40;;;3.70;;
64037;SDS011;54641;50.168;8.492;2023-05-15T01:39:57;5.50;;;3.60;;
64037;SDS011;54641;50.168;8.492;2023-05-15T01:42:32;4.50;;;3.20;;
64037;SDS011;54641;50.168;8.492;2023-05-15T01:45:03;3.90;;;3.20;;
64037;SDS011;54641;50.168;8.492;2023-05-15T01:47:38;5.80;;;3.50;;
64037;SDS011;54641;50.168;8.492;2023-05-15T01:50:12;5.10;;;3.50;;
64037;SDS011;54641;50.168;8.492;2023-05-15T01:52:44;5.90;;;3.60;;
64037;SDS011;54641;50.168;8.492;2023-05-15T01:55:15;6.10;;;3.80;;
64037;SDS011;54641;50.168;8.492;2023-05-15T01:57:48;4.20;;;3.10;;
64037;SDS011;54641;50.168;8.492;2023-05-15T02:00:19;4.70;;;3.20;;
64037;SDS011;54641;50.168;8.492;2023-05-15T02:02:51;4.90;;;3.80;;
64037;SDS011;54641;50.168;8.492;2023-05-15T02:05:22;5.50;;;3.70;;
64037;SDS011;54641;50.168;8.492;2023-05-15T02:07:53;5.60;;;3.80;;
64037;SDS011;54641;50.168;8.492;2023-05-15T02:10:24;6.60;;;3.80;;
64037;SDS011;54641;50.168;8.492;2023-05-15T02:12:56;5.70;;;3.50;;
64037;SDS011;54641;50.168;8.492;2023-05-15T02:15:29;4.90;;;3.20;;
64037;SDS011;54641;50.168;8.492;2023-05-15T02:18:03;4.40;;;3.30;;
64037;SDS011;54641;50.168;8.492;2023-05-15T02:20:35;4.60;;;3.60;;
64037;SDS011;54641;50.168;8.492;2023-05-15T02:23:07;5.20;;;3.40;;
64037;SDS011;54641;50.168;8.492;2023-05-15T02:28:13;5.80;;;3.60;;
64037;SDS011;54641;50.168;8.492;2023-05-15T02:30:52;5.00;;;3.80;;
64037;SDS011;54641;50.168;8.492;2023-05-15T02:33:28;5.70;;;4.10;;
64037;SDS011;54641;50.168;8.492;2023-05-15T02:36:05;9.40;;;8.30;;
64037;SDS011;54641;50.168;8.492;2023-05-15T02:38:40;5.60;;;4.80;;
64037;SDS011;54641;50.168;8.492;2023-05-15T02:41:16;6.30;;;4.50;;
64037;SDS011;54641;50.168;8.492;2023-05-15T02:43:50;6.30;;;3.70;;
64037;SDS011;54641;50.168;8.492;2023-05-15T02:46:24;6.70;;;4.20;;
64037;SDS011;54641;50.168;8.492;2023-05-15T02:48:56;6.20;;;4.20;;
64037;SDS011;54641;50.168;8.492;2023-05-15T02:51:28;4.20;;;3.50;;
64037;SDS011;54641;50.168;8.492;2023-05-15T02:53:59;6.00;;;3.80;;
64037;SDS011;54641;50.168;8.492;2023-05-15T02:56:32;5.30;;;3.90;;
64037;SDS011;54641;50.168;8.492;2023-05-15T02:59:04;5.20;;;4.10;;
64037;SDS011;54641;50.168;8.492;2023-05-15T03:01:36;5.40;;;4.50;;
64037;SDS011;54641;50.168;8.492;2023-05-15T03:04:09;6.20;;;4.40;;
64037;SDS011;54641;50.168;8.492;2023-05-15T03:06:42;5.20;;;4.10;;
64037;SDS011;54641;50.168;8.492;2023-05-15T03:09:13;4.90;;;3.60;;
64037;SDS011;54641;50.168;8.492;2023-05-15T03:16:25;5.30;;;4.00;;
64037;SDS011;54641;50.168;8.492;2023-05-15T03:18:56;5.00;;;4.00;;
64037;SDS011;54641;50.168;8.492;2023-05-15T03:21:27;5.60;;;4.30;;
64037;SDS011;54641;50.168;8.492;2023-05-15T03:23:58;8.30;;;4.60;;
64037;SDS011;54641;50.168;8.492;2023-05-15T03:26:29;6.00;;;4.00;;
64037;SDS011;54641;50.168;8.492;2023-05-15T03:28:59;6.60;;;3.90;;
64037;SDS011;54641;50.168;8.492;2023-05-15T03:31:30;6.70;;;4.40;;
64037;SDS011;54641;50.168;8.492;2023-05-15T03:34:00;7.40;;;5.50;;
64037;SDS011;54641;50.168;8.492;2023-05-15T03:36:30;6.40;;;5.30;;
64037;SDS011;54641;50.168;8.492;2023-05-15T03:39:01;7.30;;;5.40;;
64037;SDS011;54641;50.168;8.492;2023-05-15T03:41:35;6.60;;;4.50;;
64037;SDS011;54641;50.168;8.492;2023-05-15T03:44:08;7.20;;;5.00;;
64037;SDS011;54641;50.168;8.492;2023-05-15T03:46:40;7.90;;;4.80;;
64037;SDS011;54641;50.168;8.492;2023-05-15T03:49:10;9.40;;;6.00;;
64037;SDS011;54641;50.168;8.492;2023-05-15T03:51:41;10.10;;;6.00;;
64037;SDS011;54641;50.168;8.492;2023-05-15T03:54:13;7.70;;;5.10;;
64037;SDS011;54641;50.168;8.492;2023-05-15T03:56:44;9.30;;;5.50;;
64037;SDS011;54641;50.168;8.492;2023-05-15T03:59:14;8.50;;;5.80;;
64037;SDS011;54641;50.168;8.492;2023-05-15T04:01:45;8.40;;;5.30;;
64037;SDS011;54641;50.168;8.492;2023-05-15T04:04:31;7.00;;;5.40;;
64037;SDS011;54641;50.168;8.492;2023-05-15T04:07:02;9.80;;;7.30;;
64037;SDS011;54641;50.168;8.492;2023-05-15T04:09:32;8.00;;;5.40;;
64037;SDS011;54641;50.168;8.492;2023-05-15T04:12:04;8.50;;;6.60;;
64037;SDS011;54641;50.168;8.492;2023-05-15T04:14:35;6.60;;;5.50;;
64037;SDS011;54641;50.168;8.492;2023-05-15T04:17:05;7.70;;;5.70;;
64037;SDS011;54641;50.168;8.492;2023-05-15T04:19:36;5.60;;;4.70;;
64037;SDS011;54641;50.168;8.492;2023-05-15T04:22:07;6.90;;;4.70;;
64037;SDS011;54641;50.168;8.492;2023-05-15T04:24:38;5.90;;;4.50;;
64037;SDS011;54641;50.168;8.492;2023-05-15T04:27:08;5.50;;;4.50;;
64037;SDS011;54641;50.168;8.492;2023-05-15T04:29:38;4.80;;;4.00;;
64037;SDS011;54641;50.168;8.492;2023-05-15T04:32:09;5.80;;;4.10;;
64037;SDS011;54641;50.168;8.492;2023-05-15T04:34:39;5.60;;;4.40;;
64037;SDS011;54641;50.168;8.492;2023-05-15T04:37:10;6.70;;;4.30;;
64037;SDS011;54641;50.168;8.492;2023-05-15T04:39:40;6.20;;;4.10;;
64037;SDS011;54641;50.168;8.492;2023-05-15T04:42:11;6.40;;;3.90;;
64037;SDS011;54641;50.168;8.492;2023-05-15T04:44:41;5.50;;;4.10;;
64037;SDS011;54641;50.168;8.492;2023-05-15T04:47:12;5.80;;;4.20;;
64037;SDS011;54641;50.168;8.492;2023-05-15T04:49:42;9.10;;;4.70;;
64037;SDS011;54641;50.168;8.492;2023-05-15T04:52:14;4.40;;;4.00;;
64037;SDS011;54641;50.168;8.492;2023-05-15T04:54:45;5.30;;;4.30;;
64037;SDS011;54641;50.168;8.492;2023-05-15T04:57:17;4.90;;;3.90;;
64037;SDS011;54641;50.168;8.492;2023-05-15T04:59:48;4.60;;;3.90;;
64037;SDS011;54641;50.168;8.492;2023-05-15T05:02:20;5.00;;;3.80;;
64037;SDS011;54641;50.168;8.492;2023-05-15T05:04:51;6.40;;;4.60;;
64037;SDS011;54641;50.168;8.492;2023-05-15T05:07:21;5.80;;;4.90;;
64037;SDS011;54641;50.168;8.492;2023-05-15T05:09:51;7.40;;;5.90;;
64037;SDS011;54641;50.168;8.492;2023-05-15T05:12:21;7.00;;;6.20;;
64037;SDS011;54641;50.168;8.492;2023-05-15T05:14:54;6.80;;;5.70;;
64037;SDS011;54641;50.168;8.492;2023-05-15T05:17:24;8.80;;;6.80;;
64037;SDS011;54641;50.168;8.492;2023-05-15T05:19:55;8.00;;;6.40;;
64037;SDS011;54641;50.168;8.492;2023-05-15T05:22:25;9.40;;;6.50;;
64037;SDS011;54641;50.168;8.492;2023-05-15T05:24:58;6.60;;;6.00;;
64037;SDS011;54641;50.168;8.492;2023-05-15T05:27:28;6.70;;;5.90;;
64037;SDS011;54641;50.168;8.492;2023-05-15T05:29:58;6.70;;;5.90;;
64037;SDS011;54641;50.168;8.492;2023-05-15T05:32:30;6.90;;;4.90;;
64037;SDS011;54641;50.168;8.492;2023-05-15T05:35:00;7.50;;;5.90;;
64037;SDS011;54641;50.168;8.492;2023-05-15T05:37:30;6.80;;;4.80;;
64037;SDS011;54641;50.168;8.492;2023-05-15T05:40:00;6.00;;;5.40;;
64037;SDS011;54641;50.168;8.492;2023-05-15T05:45:02;6.60;;;4.80;;
64037;SDS011;54641;50.168;8.492;2023-05-15T05:47:34;6.00;;;4.80;;
64037;SDS011;54641;50.168;8.492;2023-05-15T05:50:05;7.20;;;5.20;;
64037;SDS011;54641;50.168;8.492;2023-05-15T05:52:37;7.60;;;5.40;;
64037;SDS011;54641;50.168;8.492;2023-05-15T05:55:08;7.20;;;5.20;;
64037;SDS011;54641;50.168;8.492;2023-05-15T05:57:38;7.80;;;5.70;;
64037;SDS011;54641;50.168;8.492;2023-05-15T06:00:09;5.50;;;4.90;;
64037;SDS011;54641;50.168;8.492;2023-05-15T06:02:45;7.30;;;5.60;;
64037;SDS011;54641;50.168;8.492;2023-05-15T06:05:17;7.30;;;5.50;;
64037;SDS011;54641;50.168;8.492;2023-05-15T06:07:47;6.00;;;4.80;;
64037;SDS011;54641;50.168;8.492;2023-05-15T06:10:18;6.00;;;5.10;;
64037;SDS011;54641;50.168;8.492;2023-05-15T06:12:49;7.30;;;5.80;;
64037;SDS011;54641;50.168;8.492;2023-05-15T06:15:20;6.80;;;5.90;;
64037;SDS011;54641;50.168;8.492;2023-05-15T06:17:51;6.20;;;5.40;;
64037;SDS011;54641;50.168;8.492;2023-05-15T06:20:21;8.10;;;6.90;;
64037;SDS011;54641;50.168;8.492;2023-05-15T06:22:53;9.80;;;8.00;;
64037;SDS011;54641;50.168;8.492;2023-05-15T06:25:23;11.40;;;10.20;;
64037;SDS011;54641;50.168;8.492;2023-05-15T06:27:53;13.70;;;12.30;;
64037;SDS011;54641;50.168;8.492;2023-05-15T06:30:24;11.60;;;9.00;;
64037;SDS011;54641;50.168;8.492;2023-05-15T06:32:54;10.70;;;8.90;;
64037;SDS011;54641;50.168;8.492;2023-05-15T06:35:24;9.20;;;8.20;;
64037;SDS011;54641;50.168;8.492;2023-05-15T06:37:55;9.20;;;7.80;;
64037;SDS011;54641;50.168;8.492;2023-05-15T06:40:25;11.80;;;10.20;;
64037;SDS011;54641;50.168;8.492;2023-05-15T06:42:56;12.60;;;11.00;;
64037;SDS011;54641;50.168;8.492;2023-05-15T06:45:26;13.10;;;9.00;;
64037;SDS011;54641;50.168;8.492;2023-05-15T06:47:57;12.20;;;8.30;;
64037;SDS011;54641;50.168;8.492;2023-05-15T06:50:28;10.80;;;9.70;;
64037;SDS011;54641;50.168;8.492;2023-05-15T06:52:59;9.40;;;8.40;;
64037;SDS011;54641;50.168;8.492;2023-05-15T06:55:29;9.50;;;8.10;;
64037;SDS011;54641;50.168;8.492;2023-05-15T06:58:01;8.60;;;7.70;;
64037;SDS011;54641;50.168;8.492;2023-05-15T07:00:31;9.00;;;7.20;;
64037;SDS011;54641;50.168;8.492;2023-05-15T07:03:01;8.70;;;6.50;;
64037;SDS011;54641;50.168;8.492;2023-05-15T07:05:32;10.90;;;7.10;;
64037;SDS011;54641;50.168;8.492;2023-05-15T07:08:03;7.40;;;6.40;;
64037;SDS011;54641;50.168;8.492;2023-05-15T07:10:33;9.40;;;6.80;;
64037;SDS011;54641;50.168;8.492;2023-05-15T07:13:03;7.90;;;6.60;;
64037;SDS011;54641;50.168;8.492;2023-05-15T07:15:34;7.40;;;5.80;;
64037;SDS011;54641;50.168;8.492;2023-05-15T07:18:05;8.70;;;6.00;;
64037;SDS011;54641;50.168;8.492;2023-05-15T07:20:35;6.20;;;5.60;;
64037;SDS011;54641;50.168;8.492;2023-05-15T07:23:06;7.50;;;5.50;;
64037;SDS011;54641;50.168;8.492;2023-05-15T07:25:37;6.50;;;5.60;;
64037;SDS011;54641;50.168;8.492;2023-05-15T07:28:07;7.60;;;5.60;;
64037;SDS011;54641;50.168;8.492;2023-05-15T07:30:37;11.20;;;6.00;;
64037;SDS011;54641;50.168;8.492;2023-05-15T07:33:08;7.20;;;5.30;;
64037;SDS011;54641;50.168;8.492;2023-05-15T07:35:38;6.40;;;5.40;;
64037;SDS011;54641;50.168;8.492;2023-05-15T07:38:10;6.40;;;5.00;;
64037;SDS011;54641;50.168;8.492;2023-05-15T07:40:41;6.70;;;5.50;;
64037;SDS011;54641;50.168;8.492;2023-05-15T07:43:11;8.20;;;5.90;;
64037;SDS011;54641;50.168;8.492;2023-05-15T07:45:41;7.20;;;5.10;;
64037;SDS011;54641;50.168;8.492;2023-05-15T07:48:15;6.90;;;6.00;;
64037;SDS011;54641;50.168;8.492;2023-05-15T07:50:47;6.90;;;6.20;;
64037;SDS011;54641;50.168;8.492;2023-05-15T07:53:18;8.20;;;6.50;;
64037;SDS011;54641;50.168;8.492;2023-05-15T07:55:49;6.80;;;6.10;;
64037;SDS011;54641;50.168;8.492;2023-05-15T07:58:20;7.50;;;5.50;;
64037;SDS011;54641;50.168;8.492;2023-05-15T08:00:50;12.10;;;5.70;;
64037;SDS011;54641;50.168;8.492;2023-05-15T08:03:21;7.20;;;6.00;;
64037;SDS011;54641;50.168;8.492;2023-05-15T08:05:52;9.30;;;6.40;;
64037;SDS011;54641;50.168;8.492;2023-05-15T08:08:22;7.40;;;6.20;;
64037;SDS011;54641;50.168;8.492;2023-05-15T08:10:52;7.70;;;6.30;;
64037;SDS011;54641;50.168;8.492;2023-05-15T08:13:23;7.00;;;5.90;;
64037;SDS011;54641;50.168;8.492;2023-05-15T08:15:53;12.30;;;6.60;;
64037;SDS011;54641;50.168;8.492;2023-05-15T08:18:24;8.60;;;7.50;;
64037;SDS011;54641;50.168;8.492;2023-05-15T08:20:54;7.50;;;6.70;;
64037;SDS011;54641;50.168;8.492;2023-05-15T08:23:24;7.80;;;6.70;;
64037;SDS011;54641;50.168;8.492;2023-05-15T08:25:54;6.70;;;6.00;;
64037;SDS011;54641;50.168;8.492;2023-05-15T08:28:25;9.30;;;6.10;;
64037;SDS011;54641;50.168;8.492;2023-05-15T08:30:56;9.00;;;7.70;;
64037;SDS011;54641;50.168;8.492;2023-05-15T08:33:26;8.90;;;7.90;;
64037;SDS011;54641;50.168;8.492;2023-05-15T08:35:56;9.90;;;7.80;;
64037;SDS011;54641;50.168;8.492;2023-05-15T08:38:26;10.70;;;8.00;;
64037;SDS011;54641;50.168;8.492;2023-05-15T08:40:59;10.00;;;8.60;;
64037;SDS011;54641;50.168;8.492;2023-05-15T08:43:34;13.00;;;9.20;;
64037;SDS011;54641;50.168;8.492;2023-05-15T08:46:06;10.10;;;8.80;;
64037;SDS011;54641;50.168;8.492;2023-05-15T08:48:36;11.20;;;9.60;;
64037;SDS011;54641;50.168;8.492;2023-05-15T08:51:09;10.50;;;8.10;;
64037;SDS011;54641;50.168;8.492;2023-05-15T08:53:39;13.20;;;8.50;;
64037;SDS011;54641;50.168;8.492;2023-05-15T08:56:09;8.90;;;8.00;;
64037;SDS011;54641;50.168;8.492;2023-05-15T08:58:40;9.30;;;7.70;;
64037;SDS011;54641;50.168;8.492;2023-05-15T09:01:11;11.00;;;7.90;;
64037;SDS011;54641;50.168;8.492;2023-05-15T09:03:43;8.50;;;7.30;;
64037;SDS011;54641;50.168;8.492;2023-05-15T09:06:14;9.40;;;6.90;;
64037;SDS011;54641;50.168;8.492;2023-05-15T09:08:45;8.50;;;7.40;;
64037;SDS011;54641;50.168;8.492;2023-05-15T09:11:16;8.70;;;7.40;;
64037;SDS011;54641;50.168;8.492;2023-05-15T09:13:47;9.40;;;8.10;;
64037;SDS011;54641;50.168;8.492;2023-05-15T09:16:17;8.90;;;8.00;;
64037;SDS011;54641;50.168;8.492;2023-05-15T09:18:48;10.50;;;8.00;;
64037;SDS011;54641;50.168;8.492;2023-05-15T09:21:23;10.40;;;8.10;;
64037;SDS011;54641;50.168;8.492;2023-05-15T09:23:54;10.80;;;8.40;;
64037;SDS011;54641;50.168;8.492;2023-05-15T09:26:41;10.80;;;8.80;;
64037;SDS011;54641;50.168;8.492;2023-05-15T09:29:14;11.80;;;8.80;;
64037;SDS011;54641;50.168;8.492;2023-05-15T09:31:46;11.40;;;9.00;;
64037;SDS011;54641;50.168;8.492;2023-05-15T09:34:16;13.00;;;9.60;;
64037;SDS011;54641;50.168;8.492;2023-05-15T09:36:47;13.40;;;10.30;;
64037;SDS011;54641;50.168;8.492;2023-05-15T09:39:17;15.90;;;11.60;;
64037;SDS011;54641;50.168;8.492;2023-05-15T09:41:51;19.70;;;11.10;;
64037;SDS011;54641;50.168;8.492;2023-05-15T09:44:23;17.70;;;11.90;;
64037;SDS011;54641;50.168;8.492;2023-05-15T09:46:54;17.70;;;11.50;;
64037;SDS011;54641;50.168;8.492;2023-05-15T09:49:25;15.10;;;11.20;;
64037;SDS011;54641;50.168;8.492;2023-05-15T09:52:00;18.50;;;12.30;;
64037;SDS011;54641;50.168;8.492;2023-05-15T09:54:30;21.50;;;14.30;;
64037;SDS011;54641;50.168;8.492;2023-05-15T09:57:07;23.20;;;14.50;;
64037;SDS011;54641;50.168;8.492;2023-05-15T09:59:42;22.80;;;14.10;;
64037;SDS011;54641;50.168;8.492;2023-05-15T10:02:14;21.00;;;13.60;;
64037;SDS011;54641;50.168;8.492;2023-05-15T10:04:54;22.80;;;13.20;;
64037;SDS011;54641;50.168;8.492;2023-05-15T10:07:29;24.60;;;14.00;;
64037;SDS011;54641;50.168;8.492;2023-05-15T10:10:00;19.20;;;12.70;;
64037;SDS011;54641;50.168;8.492;2023-05-15T10:12:31;22.70;;;15.60;;
64037;SDS011;54641;50.168;8.492;2023-05-15T10:15:04;21.10;;;14.80;;
64037;SDS011;54641;50.168;8.492;2023-05-15T10:17:35;23.00;;;15.50;;
64037;SDS011;54641;50.168;8.492;2023-05-15T10:20:07;21.30;;;15.10;;
64037;SDS011;54641;50.168;8.492;2023-05-15T10:22:40;18.50;;;14.50;;
64037;SDS011;54641;50.168;8.492;2023-05-15T10:25:15;20.70;;;15.70;;
64037;SDS011;54641;50.168;8.492;2023-05-15T10:27:46;21.60;;;15.30;;
64037;SDS011;54641;50.168;8.492;2023-05-15T10:30:19;17.70;;;14.70;;
64037;SDS011;54641;50.168;8.492;2023-05-15T10:32:50;19.40;;;14.80;;
64037;SDS011;54641;50.168;8.492;2023-05-15T10:35:21;19.50;;;14.90;;
64037;SDS011;54641;50.168;8.492;2023-05-15T10:37:51;24.70;;;17.90;;
64037;SDS011;54641;50.168;8.492;2023-05-15T10:40:23;23.00;;;17.50;;
64037;SDS011;54641;50.168;8.492;2023-05-15T10:42:53;27.70;;;18.00;;
64037;SDS011;54641;50.168;8.492;2023-05-15T10:45:24;21.50;;;15.50;;
64037;SDS011;54641;50.168;8.492;2023-05-15T10:47:55;19.80;;;16.00;;
64037;SDS011;54641;50.168;8.492;2023-05-15T10:50:25;21.70;;;17.10;;
64037;SDS011;54641;50.168;8.492;2023-05-15T10:52:56;22.60;;;17.40;;
64037;SDS011;54641;50.168;8.492;2023-05-15T10:55:26;20.10;;;16.70;;
64037;SDS011;54641;50.168;8.492;2023-05-15T10:57:56;22.10;;;17.10;;
64037;SDS011;54641;50.168;8.492;2023-05-15T11:00:27;22.30;;;18.00;;
64037;SDS011;54641;50.168;8.492;2023-05-15T11:02:58;23.00;;;18.90;;
64037;SDS011;54641;50.168;8.492;2023-05-15T11:05:30;23.20;;;18.70;;
64037;SDS011;54641;50.168;8.492;2023-05-15T11:08:33;24.00;;;19.00;;
64037;SDS011;54641;50.168;8.492;2023-05-15T11:11:04;21.70;;;18.80;;
64037;SDS011;54641;50.168;8.492;2023-05-15T11:16:57;23.50;;;19.90;;
64037;SDS011;54641;50.168;8.492;2023-05-15T11:22:29;20.30;;;17.20;;
64037;SDS011;54641;50.168;8.492;2023-05-15T11:25:03;21.90;;;18.30;;
64037;SDS011;54641;50.168;8.492;2023-05-15T11:27:38;21.60;;;16.60;;
64037;SDS011;54641;50.168;8.492;2023-05-15T11:30:13;21.80;;;18.50;;
64037;SDS011;54641;50.168;8.492;2023-05-15T11:32:51;19.00;;;17.00;;
64037;SDS011;54641;50.168;8.492;2023-05-15T11:35:26;21.20;;;17.60;;
64037;SDS011;54641;50.168;8.492;2023-05-15T11:37:57;21.30;;;16.90;;
64037;SDS011;54641;50.168;8.492;2023-05-15T11:40:30;19.20;;;17.20;;
64037;SDS011;54641;50.168;8.492;2023-05-15T11:43:16;20.20;;;16.20;;
64037;SDS011;54641;50.168;8.492;2023-05-15T11:45:49;18.20;;;15.90;;
64037;SDS011;54641;50.168;8.492;2023-05-15T11:48:22;21.80;;;17.20;;
64037;SDS011;54641;50.168;8.492;2023-05-15T11:50:53;20.60;;;17.10;;
64037;SDS011;54641;50.168;8.492;2023-05-15T11:53:24;21.30;;;17.20;;
64037;SDS011;54641;50.168;8.492;2023-05-15T11:55:54;22.00;;;18.10;;
64037;SDS011;54641;50.168;8.492;2023-05-15T11:58:25;20.40;;;16.70;;
64037;SDS011;54641;50.168;8.492;2023-05-15T12:00:56;20.50;;;16.80;;
64037;SDS011;54641;50.168;8.492;2023-05-15T12:03:31;20.70;;;16.80;;
64037;SDS011;54641;50.168;8.492;2023-05-15T12:06:02;20.00;;;16.30;;
64037;SDS011;54641;50.168;8.492;2023-05-15T12:08:34;19.70;;;16.10;;
64037;SDS011;54641;50.168;8.492;2023-05-15T12:11:05;22.40;;;18.00;;
64037;SDS011;54641;50.168;8.492;2023-05-15T12:13:35;21.90;;;17.20;;
64037;SDS011;54641;50.168;8.492;2023-05-15T12:16:06;18.60;;;16.10;;
64037;SDS011;54641;50.168;8.492;2023-05-15T12:18:36;19.30;;;16.40;;
64037;SDS011;54641;50.168;8.492;2023-05-15T12:21:08;21.00;;;17.30;;
64037;SDS011;54641;50.168;8.492;2023-05-15T12:23:38;18.00;;;14.90;;
64037;SDS011;54641;50.168;8.492;2023-05-15T12:26:20;17.00;;;14.40;;
64037;SDS011;54641;50.168;8.492;2023-05-15T12:28:51;17.90;;;15.50;;
64037;SDS011;54641;50.168;8.492;2023-05-15T12:31:22;19.50;;;17.20;;
64037;SDS011;54641;50.168;8.492;2023-05-15T12:33:53;16.10;;;14.60;;
64037;SDS011;54641;50.168;8.492;2023-05-15T12:36:25;18.60;;;15.70;;
64037;SDS011;54641;50.168;8.492;2023-05-15T12:38:57;19.20;;;15.70;;
64037;SDS011;54641;50.168;8.492;2023-05-15T12:41:31;21.10;;;16.70;;
64037;SDS011;54641;50.168;8.492;2023-05-15T12:44:01;18.40;;;16.10;;
64037;SDS011;54641;50.168;8.492;2023-05-15T12:46:31;18.40;;;15.30;;
64037;SDS011;54641;50.168;8.492;2023-05-15T12:49:02;21.90;;;17.80;;
64037;SDS011;54641;50.168;8.492;2023-05-15T12:51:33;18.60;;;15.30;;
64037;SDS011;54641;50.168;8.492;2023-05-15T12:54:03;19.10;;;16.40;;
64037;SDS011;54641;50.168;8.492;2023-05-15T12:56:33;20.90;;;17.30;;
64037;SDS011;54641;50.168;8.492;2023-05-15T12:59:04;22.90;;;18.30;;
64037;SDS011;54641;50.168;8.492;2023-05-15T13:01:34;20.40;;;17.50;;
64037;SDS011;54641;50.168;8.492;2023-05-15T13:04:05;20.60;;;18.00;;
64037;SDS011;54641;50.168;8.492;2023-05-15T13:06:38;14.90;;;9.20;;
64037;SDS011;54641;50.168;8.492;2023-05-15T13:09:14;8.60;;;6.70;;
64037;SDS011;54641;50.168;8.492;2023-05-15T13:11:50;8.00;;;6.70;;
64037;SDS011;54641;50.168;8.492;2023-05-15T13:14:20;9.30;;;6.90;;
64037;SDS011;54641;50.168;8.492;2023-05-15T13:16:57;5.90;;;4.80;;
64037;SDS011;54641;50.168;8.492;2023-05-15T13:19:29;7.60;;;5.20;;
64037;SDS011;54641;50.168;8.492;2023-05-15T13:22:00;7.30;;;4.50;;
64037;SDS011;54641;50.168;8.492;2023-05-15T13:24:30;8.10;;;5.30;;
64037;SDS011;54641;50.168;8.492;2023-05-15T13:27:00;8.00;;;5.40;;
64037;SDS011;54641;50.168;8.492;2023-05-15T13:29:31;5.90;;;4.60;;
64037;SDS011;54641;50.168;8.492;2023-05-15T13:32:01;6.60;;;4.30;;
64037;SDS011;54641;50.168;8.492;2023-05-15T13:34:32;5.90;;;4.20;;
64037;SDS011;54641;50.168;8.492;2023-05-15T13:37:03;6.00;;;4.50;;
64037;SDS011;54641;50.168;8.492;2023-05-15T13:39:34;5.90;;;4.50;;
64037;SDS011;54641;50.168;8.492;2023-05-15T13:42:04;5.50;;;4.00;;
64037;SDS011;54641;50.168;8.492;2023-05-15T13:44:35;8.30;;;4.60;;
64037;SDS011;54641;50.168;8.492;2023-05-15T13:47:05;7.70;;;4.90;;
64037;SDS011;54641;50.168;8.492;2023-05-15T13:49:36;7.50;;;5.50;;
64037;SDS011;54641;50.168;8.492;2023-05-15T13:52:07;11.40;;;6.70;;
64037;SDS011;54641;50.168;8.492;2023-05-15T13:54:37;9.10;;;6.40;;
64037;SDS011;54641;50.168;8.492;2023-05-15T13:57:07;9.90;;;6.40;;
64037;SDS011;54641;50.168;8.492;2023-05-15T13:59:38;10.20;;;7.40;;
64037;SDS011;54641;50.168;8.492;2023-05-15T14:02:08;9.80;;;7.80;;
64037;SDS011;54641;50.168;8.492;2023-05-15T14:04:38;13.60;;;8.10;;
64037;SDS011;54641;50.168;8.492;2023-05-15T14:07:08;11.50;;;7.90;;
64037;SDS011;54641;50.168;8.492;2023-05-15T14:09:39;10.90;;;8.30;;
64037;SDS011;54641;50.168;8.492;2023-05-15T14:12:09;15.50;;;11.50;;
64037;SDS011;54641;50.168;8.492;2023-05-15T14:14:40;13.90;;;10.20;;
64037;SDS011;54641;50.168;8.492;2023-05-15T14:17:10;20.60;;;11.80;;
64037;SDS011;54641;50.168;8.492;2023-05-15T14:19:41;15.50;;;11.70;;
64037;SDS011;54641;50.168;8.492;2023-05-15T14:22:12;15.50;;;11.50;;
64037;SDS011;54641;50.168;8.492;2023-05-15T14:24:43;12.80;;;9.50;;
64037;SDS011;54641;50.168;8.492;2023-05-15T14:27:13;15.90;;;11.10;;
64037;SDS011;54641;50.168;8.492;2023-05-15T14:29:44;15.60;;;10.40;;
64037;SDS011;54641;50.168;8.492;2023-05-15T14:32:18;16.10;;;11.50;;
64037;SDS011;54641;50.168;8.492;2023-05-15T14:34:49;14.20;;;10.30;;
64037;SDS011;54641;50.168;8.492;2023-05-15T14:37:20;16.80;;;10.50;;
64037;SDS011;54641;50.168;8.492;2023-05-15T14:39:51;16.30;;;9.60;;
64037;SDS011;54641;50.168;8.492;2023-05-15T14:42:21;17.80;;;10.20;;
64037;SDS011;54641;50.168;8.492;2023-05-15T14:44:52;21.00;;;11.10;;
64037;SDS011;54641;50.168;8.492;2023-05-15T14:47:23;17.30;;;11.50;;
64037;SDS011;54641;50.168;8.492;2023-05-15T14:49:55;15.40;;;10.80;;
64037;SDS011;54641;50.168;8.492;2023-05-15T14:52:25;17.80;;;12.10;;
64037;SDS011;54641;50.168;8.492;2023-05-15T14:54:56;19.90;;;11.80;;
64037;SDS011;54641;50.168;8.492;2023-05-15T14:57:34;16.50;;;11.20;;
64037;SDS011;54641;50.168;8.492;2023-05-15T15:00:06;17.60;;;11.10;;
64037;SDS011;54641;50.168;8.492;2023-05-15T15:02:39;19.70;;;12.40;;
64037;SDS011;54641;50.168;8.492;2023-05-15T15:05:10;17.10;;;12.20;;
64037;SDS011;54641;50.168;8.492;2023-05-15T15:10:28;16.30;;;10.10;;
64037;SDS011;54641;50.168;8.492;2023-05-15T15:12:59;16.60;;;11.80;;
64037;SDS011;54641;50.168;8.492;2023-05-15T15:15:30;14.40;;;10.70;;
64037;SDS011;54641;50.168;8.492;2023-05-15T15:18:01;17.70;;;12.80;;
64037;SDS011;54641;50.168;8.492;2023-05-15T15:20:32;15.40;;;11.30;;
64037;SDS011;54641;50.168;8.492;2023-05-15T15:23:03;17.30;;;12.10;;
64037;SDS011;54641;50.168;8.492;2023-05-15T15:25:33;15.70;;;11.30;;